Time;durP1;ratioP1;P1;durP2;ratioP2;P2;SDS_P1;SDS_P2;PMS_P1;PMS_P2;Temp;Humidity;BMP_temperature;BMP_pressure;BME280_temperature;BME280_humidity;BME280_pressure;Samples;Min_cycle;Max_cycle;Signal;HPM_P1;HPM_P2
2023/03/05 00:02:21;;;;;;;15.88;7.03;;;4.80;75.10;;;;;;5008495;28;20086;-76
2023/03/05 00:04:47;;;;;;;16.55;7.88;;;4.80;75.20;;;;;;4997524;28;20042;-76
2023/03/05 00:07:13;;;;;;;16.70;7.93;;;4.80;75.20;;;;;;4965053;28;20037;-76
2023/03/05 00:09:39;;;;;;;13.23;6.90;;;4.80;75.30;;;;;;5035821;28;20063;-76
2023/03/05 00:12:05;;;;;;;11.75;6.95;;;4.80;75.40;;;;;;5016170;28;20064;-76
2023/03/05 00:14:30;;;;;;;15.95;7.85;;;4.80;75.40;;;;;;5008333;28;20482;-76
2023/03/05 00:16:56;;;;;;;14.43;6.45;;;4.80;75.40;;;;;;5008514;28;20606;-76
2023/03/05 00:19:21;;;;;;;15.00;7.45;;;4.80;75.30;;;;;;5031051;28;20037;-76
2023/03/05 00:21:47;;;;;;;13.45;6.82;;;4.80;75.40;;;;;;5016809;28;20033;-76
2023/03/05 00:24:17;;;;;;;14.13;7.15;;;4.80;75.40;;;;;;5036327;28;20036;-76
2023/03/05 00:26:43;;;;;;;15.80;7.18;;;4.80;75.50;;;;;;5013796;28;20083;-75
2023/03/05 00:29:08;;;;;;;14.18;7.68;;;4.80;75.40;;;;;;5036241;28;21770;-76
2023/03/05 00:31:34;;;;;;;15.98;7.80;;;4.80;75.50;;;;;;5018335;28;20033;-76
2023/03/05 00:34:02;;;;;;;17.73;8.00;;;4.80;75.60;;;;;;5025244;28;20056;-76
2023/03/05 00:36:28;;;;;;;14.40;7.55;;;4.80;75.60;;;;;;5006978;28;20430;-76
2023/03/05 00:38:53;;;;;;;17.85;8.25;;;4.70;75.70;;;;;;5015087;28;20044;-77
2023/03/05 00:41:19;;;;;;;13.40;7.05;;;4.80;75.80;;;;;;5032876;28;20235;-76
2023/03/05 00:43:44;;;;;;;17.35;8.38;;;4.80;75.80;;;;;;5010281;28;20048;-75
2023/03/05 00:46:10;;;;;;;16.83;8.73;;;4.80;76.20;;;;;;5009981;28;20121;-76
2023/03/05 00:48:35;;;;;;;12.55;7.07;;;4.80;75.80;;;;;;5027773;28;20041;-76
2023/03/05 00:51:01;;;;;;;14.27;8.00;;;4.70;75.80;;;;;;5002519;28;20041;-76
2023/03/05 00:53:27;;;;;;;13.40;6.85;;;4.70;75.80;;;;;;4999748;28;20044;-76
2023/03/05 00:55:52;;;;;;;16.77;8.27;;;4.70;75.90;;;;;;5001502;28;20060;-75
2023/03/05 00:58:18;;;;;;;18.05;8.48;;;4.70;75.80;;;;;;5003905;28;20124;-76
2023/03/05 01:00:44;;;;;;;13.88;6.85;;;4.80;75.90;;;;;;4982599;28;20114;-76
2023/03/05 01:03:09;;;;;;;20.05;8.52;;;4.70;75.80;;;;;;5032197;28;20175;-76
2023/03/05 01:05:35;;;;;;;12.63;6.60;;;4.70;75.90;;;;;;5030662;28;20419;-75
2023/03/05 01:08:00;;;;;;;16.15;8.75;;;4.70;76.00;;;;;;5004570;28;20037;-76
2023/03/05 01:10:26;;;;;;;15.60;8.13;;;4.80;76.00;;;;;;5005105;28;20124;-76
2023/03/05 01:12:52;;;;;;;19.10;8.15;;;4.70;76.00;;;;;;4991820;28;20098;-76
2023/03/05 01:15:18;;;;;;;17.95;8.65;;;4.70;76.00;;;;;;5019828;28;20565;-76
2023/03/05 01:17:43;;;;;;;13.75;7.53;;;4.70;76.10;;;;;;5010606;28;20040;-76
2023/03/05 01:20:12;;;;;;;18.85;8.30;;;4.70;76.20;;;;;;4985355;28;20053;-76
2023/03/05 01:22:37;;;;;;;16.35;9.23;;;4.70;77.00;;;;;;4994584;28;20037;-76
2023/03/05 01:25:03;;;;;;;16.95;8.70;;;4.70;76.20;;;;;;5030831;28;20043;-77
2023/03/05 01:27:29;;;;;;;18.27;8.98;;;4.70;76.30;;;;;;5023140;28;20506;-76
2023/03/05 01:29:54;;;;;;;14.63;8.57;;;4.70;76.30;;;;;;4999106;28;20041;-76
2023/03/05 01:32:20;;;;;;;15.55;7.90;;;4.70;76.40;;;;;;5002197;28;20148;-76
2023/03/05 01:34:45;;;;;;;20.95;9.23;;;4.70;76.40;;;;;;5000355;28;20128;-76
2023/03/05 01:37:11;;;;;;;17.70;8.80;;;4.70;76.50;;;;;;5006617;28;20103;-75
2023/03/05 01:39:36;;;;;;;20.02;8.90;;;4.70;76.50;;;;;;4991501;28;20034;-76
2023/03/05 01:42:02;;;;;;;19.30;8.60;;;4.70;76.60;;;;;;5003615;28;20087;-76
2023/03/05 01:44:28;;;;;;;18.10;8.68;;;4.70;76.60;;;;;;5010249;28;20030;-76
2023/03/05 01:46:54;;;;;;;18.80;8.13;;;4.70;76.70;;;;;;5014685;28;20053;-76
2023/03/05 01:49:26;;;;;;;19.50;8.63;;;4.70;76.70;;;;;;5010386;28;20049;-76
2023/03/05 01:52:03;;;;;;;16.55;8.68;;;4.60;76.80;;;;;;4995226;28;20423;-76
2023/03/05 01:54:34;;;;;;;19.65;9.05;;;4.70;76.80;;;;;;4991335;28;20070;-75
2023/03/05 01:57:03;;;;;;;16.48;8.82;;;4.60;76.80;;;;;;4988125;28;20124;-75
2023/03/05 01:59:29;;;;;;;16.35;8.38;;;4.60;76.80;;;;;;4986322;28;20471;-76
2023/03/05 02:01:55;;;;;;;18.67;9.10;;;4.60;76.70;;;;;;4990143;28;20052;-76
2023/03/05 02:04:22;;;;;;;20.10;9.40;;;4.60;76.80;;;;;;4990807;28;20571;-75
2023/03/05 02:06:48;;;;;;;15.18;8.18;;;4.60;76.90;;;;;;4993204;28;20110;-75
2023/03/05 02:09:14;;;;;;;19.60;9.80;;;4.60;76.90;;;;;;5007856;28;20041;-76
2023/03/05 02:11:40;;;;;;;17.95;9.38;;;4.60;76.90;;;;;;5006637;28;20046;-76
2023/03/05 02:14:05;;;;;;;21.73;9.05;;;4.60;77.00;;;;;;4986748;28;20115;-75
2023/03/05 02:16:35;;;;;;;18.50;9.32;;;4.60;77.00;;;;;;5007115;28;20455;-76
2023/03/05 02:19:02;;;;;;;15.63;8.65;;;4.60;77.10;;;;;;4998281;28;20045;-76
2023/03/05 02:21:36;;;;;;;18.67;8.75;;;4.60;77.10;;;;;;4994547;28;20088;-75
2023/03/05 02:24:01;;;;;;;18.98;9.75;;;4.60;77.10;;;;;;4969720;28;20561;-75
2023/03/05 02:26:27;;;;;;;17.85;8.43;;;4.60;77.10;;;;;;5006276;28;20050;-76
2023/03/05 02:28:54;;;;;;;20.33;9.50;;;4.60;77.20;;;;;;4996911;28;20666;-76
2023/03/05 02:31:21;;;;;;;17.75;8.73;;;4.60;77.20;;;;;;4990869;28;20557;-76
2023/03/05 02:33:47;;;;;;;17.30;8.57;;;4.50;77.20;;;;;;4998300;28;20391;-76
2023/03/05 02:36:13;;;;;;;18.10;8.70;;;4.60;77.20;;;;;;5012547;28;20035;-76
2023/03/05 02:38:39;;;;;;;16.75;8.40;;;4.60;77.30;;;;;;4980773;28;20037;-76
2023/03/05 02:41:04;;;;;;;18.48;8.82;;;4.60;77.30;;;;;;5007571;28;20034;-76
2023/03/05 02:43:30;;;;;;;16.63;9.27;;;4.50;77.30;;;;;;5014189;28;20029;-76
2023/03/05 02:45:56;;;;;;;20.98;9.73;;;4.50;77.30;;;;;;4998887;28;20117;-76
2023/03/05 02:48:21;;;;;;;18.95;8.60;;;4.50;77.30;;;;;;5009652;28;20040;-76
2023/03/05 02:50:47;;;;;;;18.27;8.73;;;4.50;77.40;;;;;;4999202;28;20209;-76
2023/03/05 02:53:12;;;;;;;14.98;8.18;;;4.50;77.40;;;;;;4981712;28;20042;-76
2023/03/05 02:55:38;;;;;;;15.05;8.10;;;4.50;77.50;;;;;;4997404;28;20144;-76
2023/03/05 02:58:03;;;;;;;12.70;7.65;;;4.40;77.50;;;;;;5014067;28;20168;-76
2023/03/05 03:00:29;;;;;;;15.95;8.88;;;4.50;77.60;;;;;;4995481;28;20148;-76
2023/03/05 03:02:55;;;;;;;15.05;8.40;;;4.40;77.60;;;;;;4992305;28;20034;-76
2023/03/05 03:05:20;;;;;;;13.93;7.90;;;4.40;77.70;;;;;;4976862;28;20532;-75
2023/03/05 03:07:46;;;;;;;16.05;7.80;;;4.40;77.70;;;;;;5008899;28;20140;-75
2023/03/05 03:10:11;;;;;;;16.73;8.13;;;4.40;78.60;;;;;;5009702;28;20121;-76
2023/03/05 03:12:41;;;;;;;16.13;8.18;;;4.40;77.80;;;;;;4994824;28;20033;-76
2023/03/05 03:15:08;;;;;;;18.27;8.60;;;4.40;77.90;;;;;;5007421;28;20616;-75
2023/03/05 03:17:34;;;;;;;14.82;7.68;;;4.40;77.90;;;;;;5009928;28;20504;-76
2023/03/05 03:20:00;;;;;;;15.18;8.30;;;4.30;77.90;;;;;;4999883;28;20337;-76
2023/03/05 03:22:25;;;;;;;13.45;6.68;;;4.30;78.00;;;;;;5015745;28;20802;-76
2023/03/05 03:24:51;;;;;;;14.32;7.13;;;4.30;78.00;;;;;;5031147;28;20098;-76
2023/03/05 03:27:16;;;;;;;14.73;7.15;;;4.30;78.00;;;;;;4999403;28;20518;-77
2023/03/05 03:29:42;;;;;;;13.13;7.30;;;4.30;78.10;;;;;;5008049;28;20692;-77
2023/03/05 03:32:07;;;;;;;12.25;7.45;;;4.30;78.10;;;;;;4993883;28;20040;-77
2023/03/05 03:34:33;;;;;;;13.95;6.90;;;4.40;78.20;;;;;;5027512;28;20048;-75
2023/03/05 03:36:58;;;;;;;12.73;6.22;;;4.30;78.10;;;;;;5026867;28;20041;-76
2023/03/05 03:39:24;;;;;;;13.23;6.47;;;4.30;78.10;;;;;;4998005;28;20058;-76
2023/03/05 03:41:50;;;;;;;14.75;7.60;;;4.30;78.10;;;;;;5033833;28;20309;-75
2023/03/05 03:44:17;;;;;;;11.77;6.47;;;4.30;78.10;;;;;;5024985;28;20086;-76
2023/03/05 03:46:44;;;;;;;11.80;6.47;;;4.30;78.10;;;;;;4990564;28;20045;-76
2023/03/05 03:49:20;;;;;;;13.02;6.60;;;4.30;78.20;;;;;;5013439;28;20805;-76
2023/03/05 03:51:47;;;;;;;14.50;6.40;;;4.30;78.20;;;;;;5020229;28;20037;-76
2023/03/05 03:54:13;;;;;;;13.50;6.40;;;4.30;78.20;;;;;;5016994;28;20506;-76
2023/03/05 03:56:39;;;;;;;11.95;6.18;;;4.30;78.20;;;;;;5001781;28;20037;-76
2023/03/05 03:59:04;;;;;;;11.63;6.30;;;4.30;78.30;;;;;;4997037;28;20126;-75
2023/03/05 04:01:30;;;;;;;11.73;6.13;;;4.30;78.30;;;;;;5027223;28;20037;-76
2023/03/05 04:03:56;;;;;;;9.15;5.78;;;4.30;78.30;;;;;;4987312;28;20037;-76
2023/03/05 04:06:21;;;;;;;11.60;6.07;;;4.20;78.20;;;;;;5019287;28;20040;-76
2023/03/05 04:08:47;;;;;;;13.90;6.30;;;4.30;78.30;;;;;;5027075;28;20540;-76
2023/03/05 04:11:13;;;;;;;10.23;5.47;;;4.20;78.30;;;;;;5023345;28;20567;-76
2023/03/05 04:13:39;;;;;;;10.55;5.07;;;4.20;78.40;;;;;;5021910;28;20063;-76
2023/03/05 04:16:05;;;;;;;9.30;5.43;;;4.20;78.40;;;;;;5033249;28;20131;-75
2023/03/05 04:18:30;;;;;;;11.55;4.95;;;4.20;78.40;;;;;;5010225;28;20037;-76
2023/03/05 04:20:56;;;;;;;8.50;4.57;;;4.20;78.40;;;;;;5016540;28;20682;-75
2023/03/05 04:23:21;;;;;;;8.43;4.57;;;4.20;78.40;;;;;;5029537;28;20387;-76
2023/03/05 04:25:47;;;;;;;11.63;4.13;;;4.20;78.40;;;;;;5003185;28;20740;-76
2023/03/05 04:28:12;;;;;;;6.07;3.45;;;4.20;78.40;;;;;;5026972;28;20029;-76
2023/03/05 04:30:38;;;;;;;4.78;3.00;;;4.20;78.40;;;;;;5009291;28;20065;-76
2023/03/05 04:33:03;;;;;;;7.15;3.40;;;4.20;78.40;;;;;;5023960;28;20086;-76
2023/03/05 04:35:29;;;;;;;5.60;3.10;;;4.20;78.40;;;;;;5017945;28;20050;-76
2023/03/05 04:37:54;;;;;;;6.07;3.05;;;4.20;78.30;;;;;;5017773;28;20135;-76
2023/03/05 04:40:20;;;;;;;8.70;3.28;;;4.20;79.10;;;;;;5038737;28;20425;-77
2023/03/05 04:42:46;;;;;;;9.68;4.28;;;4.20;78.30;;;;;;5031941;28;20517;-76
2023/03/05 04:45:11;;;;;;;5.13;2.85;;;4.20;78.30;;;;;;5016075;28;20115;-76
2023/03/05 04:47:37;;;;;;;7.15;4.05;;;4.20;78.30;;;;;;5021837;28;20115;-76
2023/03/05 04:50:03;;;;;;;6.00;3.15;;;4.10;78.20;;;;;;5020123;28;20067;-76
2023/03/05 04:52:29;;;;;;;4.57;2.80;;;4.10;78.20;;;;;;5003797;28;20048;-76
2023/03/05 04:54:54;;;;;;;9.48;3.05;;;4.10;78.20;;;;;;5028200;28;20040;-76
2023/03/05 04:57:20;;;;;;;6.95;3.45;;;4.10;78.30;;;;;;5015568;28;20045;-77
2023/03/05 04:59:45;;;;;;;6.20;3.40;;;4.10;78.30;;;;;;4997565;28;20036;-77
2023/03/05 05:02:26;;;;;;;7.28;3.80;;;4.10;78.20;;;;;;5008713;28;20044;-76
2023/03/05 05:04:52;;;;;;;5.20;3.43;;;4.10;78.40;;;;;;5033334;28;20618;-76
2023/03/05 05:07:18;;;;;;;5.95;3.20;;;4.00;78.20;;;;;;5032773;28;20036;-76
2023/03/05 05:09:43;;;;;;;6.13;3.10;;;4.10;78.20;;;;;;5033007;28;20040;-77
2023/03/05 05:12:09;;;;;;;7.00;2.85;;;4.10;78.20;;;;;;4989021;28;20104;-75
2023/03/05 05:14:34;;;;;;;7.95;3.35;;;4.00;78.30;;;;;;5013384;28;20042;-75
2023/03/05 05:17:03;;;;;;;8.13;3.60;;;4.00;78.30;;;;;;5036384;28;20131;-75
2023/03/05 05:19:32;;;;;;;12.52;4.93;;;4.00;78.30;;;;;;5013435;28;20084;-77
2023/03/05 05:21:58;;;;;;;6.50;3.65;;;4.00;78.30;;;;;;4998413;28;20037;-76
2023/03/05 05:24:23;;;;;;;8.60;3.97;;;4.00;78.40;;;;;;4997224;28;20034;-75
2023/03/05 05:26:50;;;;;;;7.78;3.78;;;4.00;78.40;;;;;;5019139;28;20040;-75
2023/03/05 05:29:15;;;;;;;7.13;3.65;;;4.00;78.40;;;;;;5009810;28;20579;-76
2023/03/05 05:31:41;;;;;;;8.23;4.13;;;4.00;78.40;;;;;;5011472;28;20064;-76
2023/03/05 05:34:06;;;;;;;9.85;4.57;;;3.90;78.40;;;;;;5009104;28;20648;-76
2023/03/05 05:36:32;;;;;;;7.32;3.80;;;4.00;78.50;;;;;;5011365;28;21432;-75
2023/03/05 05:38:57;;;;;;;6.53;4.13;;;3.90;78.50;;;;;;5012079;28;20037;-75
2023/03/05 05:41:23;;;;;;;9.02;4.18;;;4.00;78.60;;;;;;4984049;28;20043;-75
2023/03/05 05:43:49;;;;;;;11.50;4.13;;;4.00;78.60;;;;;;5026202;28;20033;-76
2023/03/05 05:46:16;;;;;;;7.65;4.10;;;3.90;78.50;;;;;;5015028;28;20081;-76
2023/03/05 05:48:41;;;;;;;7.70;4.47;;;3.90;78.50;;;;;;5015499;28;20176;-75
2023/03/05 05:51:08;;;;;;;8.48;4.20;;;3.90;78.70;;;;;;5030096;28;20037;-76
2023/03/05 05:53:34;;;;;;;8.30;4.65;;;3.90;78.70;;;;;;4987739;28;20033;-75
2023/03/05 05:56:00;;;;;;;15.00;4.40;;;3.90;78.70;;;;;;5025558;28;20051;-76
2023/03/05 05:58:25;;;;;;;9.65;3.92;;;3.90;78.70;;;;;;5007989;28;20045;-76
2023/03/05 06:00:51;;;;;;;8.45;4.03;;;3.90;78.80;;;;;;5030852;28;20037;-76
2023/03/05 06:03:16;;;;;;;9.10;4.05;;;3.90;78.80;;;;;;5030112;28;20049;-76
2023/03/05 06:05:42;;;;;;;11.43;4.00;;;3.90;78.80;;;;;;5021618;28;20033;-75
2023/03/05 06:08:08;;;;;;;11.23;4.95;;;3.90;78.80;;;;;;5031762;28;20098;-77
2023/03/05 06:10:33;;;;;;;8.45;3.72;;;3.90;78.90;;;;;;5022658;28;20034;-76
2023/03/05 06:12:59;;;;;;;10.70;5.25;;;3.90;78.90;;;;;;5032247;28;20483;-76
2023/03/05 06:15:24;;;;;;;10.35;5.05;;;3.80;78.90;;;;;;5034427;28;20044;-76
2023/03/05 06:17:51;;;;;;;57.67;20.55;;;3.90;78.90;;;;;;5027829;28;20052;-76
2023/03/05 06:20:17;;;;;;;6.47;3.83;;;3.90;79.00;;;;;;5026814;28;20078;-76
2023/03/05 06:22:43;;;;;;;6.82;3.72;;;3.90;79.00;;;;;;5013227;28;20040;-76
2023/03/05 06:25:09;;;;;;;10.77;5.65;;;3.90;79.00;;;;;;5023883;28;20041;-76
2023/03/05 06:27:34;;;;;;;18.00;7.40;;;3.90;79.80;;;;;;5041889;28;20041;-75
2023/03/05 06:30:00;;;;;;;10.02;5.22;;;3.90;78.90;;;;;;5013581;28;20041;-76
2023/03/05 06:32:25;;;;;;;18.27;9.23;;;3.90;78.80;;;;;;5016618;28;20052;-77
2023/03/05 06:34:51;;;;;;;17.00;9.13;;;3.90;78.80;;;;;;5026547;28;20962;-77
2023/03/05 06:37:18;;;;;;;9.38;4.88;;;3.90;78.80;;;;;;5022689;28;20065;-76
2023/03/05 06:39:44;;;;;;;14.52;7.05;;;3.90;78.80;;;;;;5028957;28;20430;-77
2023/03/05 06:42:09;;;;;;;16.30;9.48;;;3.90;78.70;;;;;;5028663;28;20037;-77
2023/03/05 06:44:44;;;;;;;10.95;5.88;;;3.90;78.70;;;;;;5029683;28;20044;-75
2023/03/05 06:47:09;;;;;;;6.63;4.50;;;3.90;78.70;;;;;;5006412;28;20038;-77
2023/03/05 06:49:36;;;;;;;10.77;6.55;;;3.90;78.70;;;;;;5025900;28;20034;-76
2023/03/05 06:52:02;;;;;;;10.13;5.97;;;3.90;78.60;;;;;;5026352;28;20045;-76
2023/03/05 06:54:28;;;;;;;11.57;6.65;;;3.90;78.60;;;;;;5006421;28;20049;-76
2023/03/05 06:56:53;;;;;;;12.43;6.53;;;3.90;78.50;;;;;;5012873;28;20090;-77
2023/03/05 06:59:20;;;;;;;14.13;6.53;;;3.90;78.50;;;;;;5027672;28;20090;-77
2023/03/05 07:01:46;;;;;;;25.20;11.38;;;3.90;78.50;;;;;;5008683;28;20041;-77
2023/03/05 07:04:12;;;;;;;13.23;6.88;;;3.90;78.50;;;;;;5025326;28;20042;-77
2023/03/05 07:06:37;;;;;;;9.30;5.20;;;3.90;78.40;;;;;;5003622;28;20037;-76
2023/03/05 07:09:03;;;;;;;13.60;5.15;;;3.90;78.40;;;;;;4987048;28;20063;-76
2023/03/05 07:11:29;;;;;;;9.43;4.10;;;3.90;78.40;;;;;;5027954;28;20499;-76
2023/03/05 07:13:55;;;;;;;7.85;4.43;;;3.90;78.40;;;;;;4995985;28;20152;-77
2023/03/05 07:16:27;;;;;;;9.52;4.68;;;3.90;78.40;;;;;;4997194;28;20037;-76
2023/03/05 07:18:53;;;;;;;7.90;2.75;;;3.90;78.40;;;;;;5007872;28;20033;-76
2023/03/05 07:21:21;;;;;;;8.48;4.22;;;3.90;78.30;;;;;;5012439;28;20025;-76
2023/03/05 07:23:46;;;;;;;6.63;3.10;;;3.90;78.30;;;;;;4993944;28;20218;-77
2023/03/05 07:26:12;;;;;;;8.85;3.83;;;3.90;78.30;;;;;;5010123;28;20037;-77
2023/03/05 07:28:38;;;;;;;9.27;3.42;;;4.00;78.30;;;;;;5003153;28;20082;-75
2023/03/05 07:31:05;;;;;;;8.60;3.83;;;4.00;78.30;;;;;;5024973;28;20059;-77
2023/03/05 07:33:31;;;;;;;6.38;2.70;;;4.00;78.20;;;;;;5028041;28;20713;-76
2023/03/05 07:35:56;;;;;;;3.80;2.58;;;4.00;78.10;;;;;;5028467;28;20052;-76
2023/03/05 07:38:22;;;;;;;6.65;2.40;;;4.00;78.00;;;;;;5008219;28;20044;-77
2023/03/05 07:40:48;;;;;;;4.38;2.00;;;4.10;78.00;;;;;;5033162;28;20047;-77
2023/03/05 07:43:13;;;;;;;5.38;2.05;;;4.10;78.00;;;;;;5031362;28;20047;-76
2023/03/05 07:45:40;;;;;;;5.90;2.63;;;4.10;77.80;;;;;;5034248;28;20094;-77
2023/03/05 07:48:06;;;;;;;5.15;2.55;;;4.10;77.80;;;;;;5008182;28;20048;-76
2023/03/05 07:50:32;;;;;;;5.53;2.40;;;4.10;77.80;;;;;;5020339;28;20396;-76
2023/03/05 07:52:58;;;;;;;4.53;2.20;;;4.10;77.70;;;;;;5016445;28;21251;-75
2023/03/05 07:55:23;;;;;;;5.55;2.72;;;4.20;77.70;;;;;;4999784;28;20752;-76
2023/03/05 07:57:49;;;;;;;9.32;5.07;;;4.20;77.60;;;;;;5023632;28;20049;-75
2023/03/05 08:00:15;;;;;;;9.40;4.57;;;4.20;77.60;;;;;;4995297;28;20515;-76
2023/03/05 08:02:40;;;;;;;7.50;3.13;;;4.20;77.40;;;;;;4982698;28;20040;-77
2023/03/05 08:05:06;;;;;;;17.73;8.10;;;4.20;77.40;;;;;;5011210;28;20045;-76
2023/03/05 08:07:31;;;;;;;35.15;14.82;;;4.20;77.40;;;;;;4996978;28;20767;-76
2023/03/05 08:09:57;;;;;;;33.20;16.27;;;4.20;77.30;;;;;;5002554;28;20435;-77
2023/03/05 08:12:22;;;;;;;23.63;12.00;;;4.20;77.20;;;;;;5010028;28;20492;-76
2023/03/05 08:14:48;;;;;;;800.95;225.85;;;4.30;77.30;;;;;;5008319;28;20076;-76
2023/03/05 08:17:13;;;;;;;54.30;17.33;;;4.30;77.20;;;;;;4992769;28;20064;-76
2023/03/05 08:19:39;;;;;;;122.80;36.22;;;4.30;77.00;;;;;;5011843;28;20038;-77
2023/03/05 08:22:05;;;;;;;32.35;11.98;;;4.30;77.00;;;;;;5008113;28;20038;-76
2023/03/05 08:24:30;;;;;;;51.65;14.68;;;4.30;76.90;;;;;;5009683;28;20034;-76
2023/03/05 08:26:56;;;;;;;31.58;10.65;;;4.30;76.80;;;;;;5012858;28;20091;-76
2023/03/05 08:29:22;;;;;;;15.75;6.80;;;4.30;76.70;;;;;;4978385;28;20042;-76
2023/03/05 08:31:48;;;;;;;30.67;10.57;;;4.40;76.70;;;;;;5010498;28;20041;-76
2023/03/05 08:34:13;;;;;;;47.30;13.75;;;4.40;76.70;;;;;;5011121;28;20042;-77
2023/03/05 08:36:39;;;;;;;22.90;8.02;;;4.40;76.60;;;;;;5005760;28;20039;-76
2023/03/05 08:39:08;;;;;;;18.63;7.72;;;4.40;76.60;;;;;;5008100;28;20029;-76
2023/03/05 08:41:34;;;;;;;18.33;7.70;;;4.40;76.60;;;;;;4979728;28;20117;-76
2023/03/05 08:43:59;;;;;;;10.30;3.90;;;4.40;76.50;;;;;;5008325;28;20038;-77
2023/03/05 08:46:25;;;;;;;6.60;3.35;;;4.50;76.40;;;;;;4993216;28;20060;-76
2023/03/05 08:48:50;;;;;;;10.93;4.55;;;4.50;76.30;;;;;;5011532;28;20022;-77
2023/03/05 08:51:19;;;;;;;17.92;6.82;;;4.50;76.20;;;;;;4971801;28;20034;-76
2023/03/05 08:53:44;;;;;;;9.07;4.78;;;4.50;76.10;;;;;;5007206;28;20029;-76
2023/03/05 08:56:10;;;;;;;11.45;4.20;;;4.50;76.10;;;;;;4996103;28;20099;-76
2023/03/05 08:58:35;;;;;;;13.05;4.88;;;4.50;75.90;;;;;;4990108;28;20730;-76
2023/03/05 09:01:01;;;;;;;10.48;5.75;;;4.60;76.00;;;;;;4999939;28;20103;-76
2023/03/05 09:03:27;;;;;;;13.30;6.38;;;4.60;75.90;;;;;;5023226;28;20099;-77
2023/03/05 09:05:52;;;;;;;17.05;7.78;;;4.60;75.80;;;;;;5006922;28;20042;-76
2023/03/05 09:08:18;;;;;;;17.38;6.63;;;4.60;75.80;;;;;;5006123;28;20462;-77
2023/03/05 09:10:44;;;;;;;10.00;4.53;;;4.70;75.80;;;;;;4996547;28;20030;-76
2023/03/05 09:13:09;;;;;;;157.27;53.47;;;4.70;75.70;;;;;;4961049;28;20739;-77
2023/03/05 09:15:35;;;;;;;18.25;7.45;;;4.70;75.60;;;;;;5009050;28;20041;-76
2023/03/05 09:18:01;;;;;;;7.18;4.05;;;4.80;75.60;;;;;;5010324;28;20045;-76
2023/03/05 09:20:26;;;;;;;9.23;4.80;;;4.80;75.40;;;;;;5008551;28;20045;-77
2023/03/05 09:22:52;;;;;;;20.02;8.80;;;4.80;75.20;;;;;;5006332;28;20464;-76
2023/03/05 09:25:17;;;;;;;11.50;5.63;;;4.80;75.10;;;;;;4990780;28;20516;-77
2023/03/05 09:27:44;;;;;;;4.70;2.30;;;4.90;75.10;;;;;;5007528;28;20060;-77
2023/03/05 09:30:10;;;;;;;3.95;1.77;;;4.90;74.80;;;;;;5008940;28;20684;-77
2023/03/05 09:32:36;;;;;;;3.13;1.83;;;4.90;74.70;;;;;;5006844;28;20041;-77
2023/03/05 09:35:02;;;;;;;6.90;3.55;;;4.90;74.50;;;;;;5019555;28;20074;-77
2023/03/05 09:37:28;;;;;;;2.97;1.90;;;5.00;74.50;;;;;;5029963;28;20048;-77
2023/03/05 09:39:54;;;;;;;3.55;2.20;;;5.00;74.40;;;;;;5025657;28;20513;-77
2023/03/05 09:42:28;;;;;;;6.80;3.63;;;5.00;74.30;;;;;;5007339;28;20038;-77
2023/03/05 09:45:02;;;;;;;2.70;1.90;;;5.00;74.20;;;;;;5007837;28;20034;-77
2023/03/05 09:47:30;;;;;;;4.43;2.45;;;5.10;74.00;;;;;;4992655;28;20112;-75
2023/03/05 09:50:20;;;;;;;6.60;2.83;;;5.10;73.80;;;;;;5004803;28;20719;-77
2023/03/05 09:52:57;;;;;;;1.67;1.05;;;5.10;73.80;;;;;;5031006;28;20419;-77
2023/03/05 09:55:39;;;;;;;2.50;1.48;;;5.10;73.60;;;;;;4974153;28;20045;-77
2023/03/05 09:58:13;;;;;;;4.05;1.75;;;5.20;73.60;;;;;;5023226;28;20048;-76
2023/03/05 10:00:44;;;;;;;7.30;1.75;;;5.20;73.60;;;;;;5010411;28;20498;-77
2023/03/05 10:03:16;;;;;;;5.28;2.45;;;5.30;73.70;;;;;;5013180;28;20037;-77
2023/03/05 10:05:59;;;;;;;3.72;2.00;;;5.30;73.40;;;;;;4986960;28;20066;-76
2023/03/05 10:08:30;;;;;;;2.92;2.17;;;5.40;73.20;;;;;;5029704;28;20042;-76
2023/03/05 10:10:56;;;;;;;3.92;2.13;;;5.40;73.20;;;;;;5030696;28;20037;-77
2023/03/05 10:13:24;;;;;;;4.88;2.00;;;5.40;73.20;;;;;;5026932;28;20665;-77
2023/03/05 10:15:52;;;;;;;3.17;1.70;;;5.50;73.30;;;;;;5012380;28;20036;-76
2023/03/05 10:18:36;;;;;;;1.67;1.15;;;5.60;73.20;;;;;;5034353;28;20037;-76
2023/03/05 10:21:30;;;;;;;4.82;1.70;;;5.60;73.00;;;;;;5025924;28;20045;-76
2023/03/05 10:24:09;;;;;;;2.97;1.60;;;5.60;72.80;;;;;;5024531;28;20045;-77
2023/03/05 10:26:49;;;;;;;2.42;1.13;;;5.60;72.80;;;;;;5018247;28;20065;-77
2023/03/05 10:29:39;;;;;;;2.45;1.42;;;5.70;72.50;;;;;;5016201;28;20037;-76
2023/03/05 10:32:17;;;;;;;4.07;1.42;;;5.80;72.50;;;;;;5024531;28;20033;-77
2023/03/05 10:35:06;;;;;;;4.00;2.10;;;5.80;72.30;;;;;;5017424;28;20049;-76
2023/03/05 10:37:41;;;;;;;4.30;1.80;;;5.80;72.20;;;;;;5008949;28;20567;-77
2023/03/05 10:40:43;;;;;;;4.15;1.70;;;5.90;72.20;;;;;;5021769;28;20090;-77
2023/03/05 10:43:34;;;;;;;5.53;2.10;;;5.90;71.60;;;;;;5050839;28;20730;-76
2023/03/05 10:46:00;;;;;;;4.57;1.50;;;5.90;71.40;;;;;;5035840;28;20052;-76
2023/03/05 10:48:30;;;;;;;3.20;1.30;;;6.00;71.70;;;;;;5006873;28;20029;-75
2023/03/05 10:51:03;;;;;;;3.22;1.85;;;6.00;71.70;;;;;;5032436;28;20071;-77
2023/03/05 10:53:47;;;;;;;7.45;3.40;;;6.00;71.60;;;;;;5018461;28;20036;-76
2023/03/05 10:56:13;;;;;;;6.20;2.47;;;6.00;71.40;;;;;;5009006;28;20037;-77
2023/03/05 10:58:38;;;;;;;4.95;2.10;;;6.10;71.50;;;;;;5010699;28;20036;-77
2023/03/05 11:01:20;;;;;;;4.65;2.00;;;6.10;71.30;;;;;;5030216;28;20040;-76
2023/03/05 11:03:57;;;;;;;2.22;1.52;;;6.10;71.20;;;;;;5001291;28;20499;-77
2023/03/05 11:06:40;;;;;;;2.28;1.58;;;6.10;71.10;;;;;;5023175;28;20048;-79
2023/03/05 11:09:23;;;;;;;6.57;1.85;;;6.10;70.90;;;;;;4968317;28;20037;-83
2023/03/05 11:12:10;;;;;;;2.53;1.58;;;6.20;70.80;;;;;;5026023;28;20050;-81
2023/03/05 11:14:37;;;;;;;3.55;2.08;;;6.20;70.70;;;;;;5050775;28;20116;-81
2023/03/05 11:17:26;;;;;;;4.82;1.92;;;6.30;70.80;;;;;;5039163;28;20043;-79
2023/03/05 11:19:52;;;;;;;2.17;1.45;;;6.30;70.40;;;;;;5030433;28;21770;-79
2023/03/05 11:22:22;;;;;;;3.25;1.45;;;6.30;70.50;;;;;;5019641;28;21277;-81
2023/03/05 11:25:02;;;;;;;5.43;2.55;;;6.30;70.50;;;;;;4999062;28;20047;-79
2023/03/05 11:27:47;;;;;;;3.78;1.85;;;6.30;70.20;;;;;;5020469;28;20093;-78
2023/03/05 11:30:28;;;;;;;3.90;2.00;;;6.40;70.20;;;;;;5012710;28;20118;-80
2023/03/05 11:33:14;;;;;;;6.80;2.40;;;6.40;69.90;;;;;;5010774;28;20663;-80
2023/03/05 11:35:41;;;;;;;5.85;2.78;;;6.50;69.80;;;;;;5027766;28;20156;-79
2023/03/05 11:38:16;;;;;;;4.85;2.22;;;6.50;70.00;;;;;;5016317;28;20048;-81
2023/03/05 11:40:42;;;;;;;6.60;2.55;;;6.50;69.80;;;;;;5018639;28;20036;-79
2023/03/05 11:43:15;;;;;;;3.70;1.40;;;6.50;69.70;;;;;;5014026;28;20044;-81
2023/03/05 11:45:40;;;;;;;2.95;1.65;;;6.50;69.30;;;;;;5035844;28;20048;-80
2023/03/05 11:48:25;;;;;;;3.72;2.22;;;6.60;69.30;;;;;;5011379;28;20036;-79
2023/03/05 11:50:56;;;;;;;5.13;2.55;;;6.60;68.90;;;;;;5000887;28;20041;-80
2023/03/05 11:53:27;;;;;;;4.45;2.28;;;6.60;69.00;;;;;;5010378;28;20041;-79
2023/03/05 11:55:58;;;;;;;8.98;3.20;;;6.60;68.90;;;;;;5005849;28;20048;-79
2023/03/05 11:58:40;;;;;;;3.75;2.03;;;6.70;68.90;;;;;;5000726;28;20060;-79
2023/03/05 12:01:14;;;;;;;4.07;1.83;;;6.70;68.50;;;;;;4997115;28;21502;-79
2023/03/05 12:03:40;;;;;;;4.00;1.70;;;6.80;68.70;;;;;;5000854;28;20064;-81
2023/03/05 12:06:12;;;;;;;4.18;1.92;;;6.80;68.60;;;;;;5018486;28;20175;-78
2023/03/05 12:08:43;;;;;;;4.18;2.17;;;6.90;68.40;;;;;;5016168;28;20105;-80
2023/03/05 12:11:20;;;;;;;10.10;4.65;;;6.80;68.30;;;;;;4989505;28;20136;-76
2023/03/05 12:13:53;;;;;;;5.00;2.60;;;6.90;68.00;;;;;;4997717;28;20494;-79
2023/03/05 12:16:40;;;;;;;4.28;2.22;;;6.90;68.20;;;;;;5017907;28;20044;-79
2023/03/05 12:19:18;;;;;;;4.05;2.42;;;6.90;68.00;;;;;;5023440;28;20048;-79
2023/03/05 12:21:43;;;;;;;4.28;2.42;;;6.90;68.10;;;;;;5023432;28;20043;-79
2023/03/05 12:24:24;;;;;;;3.70;1.90;;;7.00;68.00;;;;;;5027217;28;20033;-76
2023/03/05 12:26:55;;;;;;;6.75;2.42;;;7.00;67.40;;;;;;5034814;28;20044;-77
2023/03/05 12:29:32;;;;;;;6.05;2.47;;;7.00;67.70;;;;;;5018675;28;20148;-79
2023/03/05 12:31:59;;;;;;;3.88;2.28;;;7.00;67.40;;;;;;5007868;28;20150;-79
2023/03/05 12:34:40;;;;;;;3.85;1.90;;;6.90;67.30;;;;;;4995619;28;20041;-79
2023/03/05 12:37:13;;;;;;;8.13;2.75;;;6.90;67.30;;;;;;5030135;28;20033;-78
2023/03/05 12:39:40;;;;;;;5.15;2.67;;;7.00;67.40;;;;;;4999952;28;20035;-79
2023/03/05 12:42:41;;;;;;;5.28;2.45;;;7.00;67.50;;;;;;5028137;28;20033;-80
2023/03/05 12:45:10;;;;;;;3.45;2.05;;;7.10;67.30;;;;;;4938612;28;20170;-80
2023/03/05 12:47:36;;;;;;;9.13;2.70;;;7.10;67.30;;;;;;4952617;28;20525;-80
2023/03/05 12:50:02;;;;;;;4.63;2.30;;;7.20;67.50;;;;;;4950964;28;20733;-80
2023/03/05 12:52:32;;;;;;;5.25;2.40;;;7.10;67.10;;;;;;4911103;28;20031;-78
2023/03/05 12:55:14;;;;;;;4.40;2.05;;;7.10;66.90;;;;;;4946575;28;20760;-80
2023/03/05 12:57:40;;;;;;;6.75;2.13;;;7.20;66.60;;;;;;4939081;28;20045;-80